Time;durP1;ratioP1;P1;durP2;ratioP2;P2;SDS_P1;SDS_P2;PMS_P1;PMS_P2;Temp;Humidity;BMP_temperature;BMP_pressure;BME280_temperature;BME280_humidity;BME280_pressure;Samples;Min_cycle;Max_cycle;Signal;HPM_P1;HPM_P2
2023/01/10 00:00:08;;;;;;;5.87;3.30;;;10.70;59.50;;;;;;5086303;28;20609;-87
2023/01/10 00:02:37;;;;;;;6.33;3.53;;;10.80;59.20;;;;;;5085297;28;21050;-87
2023/01/10 00:05:04;;;;;;;4.77;3.70;;;10.80;58.90;;;;;;5083864;28;20870;-87
2023/01/10 00:07:31;;;;;;;5.93;3.40;;;10.90;58.70;;;;;;5083787;28;20474;-87
2023/01/10 00:09:58;;;;;;;8.87;4.07;;;10.70;59.20;;;;;;5066109;28;20485;-86
2023/01/10 00:15:10;;;;;;;10.20;6.37;;;10.90;59.20;;;;;;5048018;28;20476;-87
2023/01/10 00:17:39;;;;;;;7.80;6.07;;;11.00;59.10;;;;;;5056543;28;20435;-87
2023/01/10 00:20:07;;;;;;;4.97;2.90;;;11.10;58.90;;;;;;5056010;28;20841;-88
2023/01/10 00:22:33;;;;;;;2.20;2.00;;;11.10;59.00;;;;;;5083309;28;20450;-87
2023/01/10 00:25:00;;;;;;;2.47;2.27;;;11.20;58.60;;;;;;5066667;28;20454;-87
2023/01/10 00:27:27;;;;;;;2.57;2.27;;;11.40;58.60;;;;;;5100910;28;21040;-88
2023/01/10 00:29:57;;;;;;;3.33;2.30;;;11.40;58.40;;;;;;5101045;28;20462;-88
2023/01/10 00:32:24;;;;;;;5.10;2.90;;;11.50;58.60;;;;;;5101040;28;20451;-87
2023/01/10 00:34:52;;;;;;;2.60;2.40;;;11.50;58.80;;;;;;5050235;28;20512;-87
2023/01/10 00:37:19;;;;;;;3.33;2.57;;;11.40;58.70;;;;;;5069410;28;20943;-87
2023/01/10 00:39:46;;;;;;;3.00;2.20;;;11.30;58.70;;;;;;5049957;28;20833;-88
2023/01/10 00:44:57;;;;;;;3.10;2.80;;;11.20;59.20;;;;;;5053515;28;20956;-85
2023/01/10 00:47:24;;;;;;;2.00;1.60;;;11.40;59.20;;;;;;5068475;28;20463;-88
2023/01/10 00:49:52;;;;;;;1.60;1.50;;;11.40;58.70;;;;;;5070130;28;20474;-87
2023/01/10 00:52:19;;;;;;;2.40;2.03;;;11.50;58.40;;;;;;5051463;27;21936;-88
2023/01/10 00:54:46;;;;;;;2.43;1.77;;;11.70;58.40;;;;;;5085019;28;20470;-87
2023/01/10 00:57:13;;;;;;;2.17;1.97;;;11.70;58.50;;;;;;5067471;27;20446;-87
2023/01/10 00:59:40;;;;;;;1.70;1.60;;;11.50;58.70;;;;;;5086451;28;20470;-86
2023/01/10 01:02:08;;;;;;;2.17;1.97;;;11.40;58.10;;;;;;5085082;27;20936;-88
2023/01/10 01:04:35;;;;;;;4.10;1.80;;;11.50;58.30;;;;;;5067245;28;20462;-87
2023/01/10 01:07:03;;;;;;;1.90;1.70;;;11.50;58.20;;;;;;5071164;27;20470;-88
2023/01/10 01:09:30;;;;;;;2.43;1.90;;;11.50;58.10;;;;;;5071346;28;20983;-86
2023/01/10 01:11:57;;;;;;;2.40;1.80;;;11.50;58.30;;;;;;5068215;28;20454;-87
2023/01/10 01:14:25;;;;;;;1.53;1.43;;;11.50;58.50;;;;;;5066820;28;20545;-86
2023/01/10 01:16:52;;;;;;;2.53;2.00;;;11.60;58.70;;;;;;5102810;28;20445;-87
2023/01/10 01:19:19;;;;;;;5.50;2.63;;;11.60;58.80;;;;;;5105209;28;20469;-87
2023/01/10 01:21:46;;;;;;;2.90;2.40;;;11.60;58.60;;;;;;5071302;28;20451;-86
2023/01/10 01:24:14;;;;;;;2.23;2.03;;;11.50;58.60;;;;;;5070057;28;20462;-86
2023/01/10 01:26:41;;;;;;;3.80;2.20;;;11.50;59.10;;;;;;5073725;28;20473;-87
2023/01/10 01:29:08;;;;;;;14.33;2.73;;;11.20;58.90;;;;;;5088601;28;20455;-87
2023/01/10 01:31:35;;;;;;;3.00;2.10;;;11.10;59.50;;;;;;5054129;28;20477;-87
2023/01/10 01:34:02;;;;;;;6.23;2.50;;;10.90;59.60;;;;;;5054873;28;20960;-85
2023/01/10 01:36:29;;;;;;;9.40;5.70;;;10.50;60.30;;;;;;5071904;28;20506;-87
2023/01/10 01:38:56;;;;;;;9.10;6.60;;;10.30;60.90;;;;;;5088777;28;20470;-87
2023/01/10 01:44:16;;;;;;;2.03;1.83;;;10.60;60.90;;;;;;5088275;28;20443;-87
2023/01/10 01:46:46;;;;;;;1.80;1.70;;;10.70;60.60;;;;;;5054821;28;20463;-87
2023/01/10 01:49:16;;;;;;;1.80;1.67;;;10.60;60.50;;;;;;5070120;28;20466;-84
2023/01/10 01:51:44;;;;;;;1.77;1.67;;;10.50;60.50;;;;;;5078128;28;20447;-86
2023/01/10 01:54:13;;;;;;;1.90;1.70;;;10.60;60.60;;;;;;5054388;28;20455;-87
2023/01/10 01:56:46;;;;;;;2.17;1.83;;;10.60;59.70;;;;;;5074221;28;20458;-87
2023/01/10 01:59:17;;;;;;;1.83;1.60;;;10.50;60.00;;;;;;5102637;28;20463;-85
2023/01/10 02:01:47;;;;;;;2.00;1.80;;;10.80;60.10;;;;;;5046563;28;20477;-86
2023/01/10 02:04:20;;;;;;;4.40;1.80;;;10.70;59.40;;;;;;5071219;28;20481;-86
2023/01/10 02:06:48;;;;;;;1.50;1.40;;;10.50;59.70;;;;;;5055446;28;20459;-87
2023/01/10 02:09:21;;;;;;;4.57;1.57;;;10.50;59.60;;;;;;5052300;27;20471;-87
2023/01/10 02:11:50;;;;;;;1.50;1.40;;;10.50;60.00;;;;;;5067423;28;21185;-87
2023/01/10 02:14:18;;;;;;;1.60;1.40;;;10.40;60.10;;;;;;5085983;28;20455;-87
2023/01/10 02:16:45;;;;;;;2.53;1.40;;;10.30;59.80;;;;;;5051133;28;20450;-86
2023/01/10 02:19:19;;;;;;;1.60;1.50;;;10.40;60.00;;;;;;5050941;28;20471;-87
2023/01/10 02:22:25;;;;;;;3.20;1.93;;;10.50;59.90;;;;;;5065143;28;21198;-87
2023/01/10 02:25:34;;;;;;;1.87;1.63;;;10.50;59.60;;;;;;5071376;28;20438;-87
2023/01/10 02:28:38;;;;;;;2.03;1.60;;;10.30;59.50;;;;;;5038778;28;20475;-86
2023/01/10 02:31:25;;;;;;;2.90;1.77;;;10.30;60.00;;;;;;5057615;28;20438;-86
2023/01/10 02:34:02;;;;;;;1.70;1.40;;;10.40;60.10;;;;;;5071714;28;20443;-87
2023/01/10 02:36:38;;;;;;;4.43;1.60;;;10.40;59.60;;;;;;5053203;28;20449;-87
2023/01/10 02:39:14;;;;;;;2.90;1.93;;;10.50;59.90;;;;;;5052392;28;20563;-86
2023/01/10 02:41:46;;;;;;;2.17;1.50;;;10.50;59.60;;;;;;5053101;28;21296;-87
2023/01/10 02:44:19;;;;;;;1.53;1.40;;;10.50;59.40;;;;;;5072421;27;20537;-87
2023/01/10 02:46:48;;;;;;;2.40;1.57;;;10.40;59.70;;;;;;5079714;28;20427;-88
2023/01/10 02:49:16;;;;;;;1.90;1.73;;;10.40;59.90;;;;;;5051110;27;20478;-85
2023/01/10 02:51:43;;;;;;;2.60;1.57;;;10.50;59.60;;;;;;5065492;28;20454;-86
2023/01/10 02:54:17;;;;;;;3.23;1.80;;;10.70;59.30;;;;;;5075215;28;20962;-88
2023/01/10 02:57:01;;;;;;;2.43;1.73;;;10.70;58.90;;;;;;5046674;28;20439;-87
2023/01/10 02:59:47;;;;;;;2.40;1.90;;;10.70;58.70;;;;;;5086699;27;20468;-87
2023/01/10 03:02:27;;;;;;;2.47;2.27;;;10.70;58.10;;;;;;5071434;27;20453;-86
2023/01/10 03:05:05;;;;;;;2.07;1.80;;;10.40;58.80;;;;;;5069855;28;20450;-87
2023/01/10 03:07:37;;;;;;;1.83;1.50;;;10.20;59.30;;;;;;5050619;28;20473;-87
2023/01/10 03:10:08;;;;;;;2.77;1.77;;;10.30;59.10;;;;;;5047067;28;21015;-87
2023/01/10 03:12:41;;;;;;;2.90;2.23;;;10.50;59.00;;;;;;5050730;28;20949;-87
2023/01/10 03:15:12;;;;;;;8.10;1.60;;;10.60;58.60;;;;;;5080814;28;20439;-87
2023/01/10 03:17:41;;;;;;;1.70;1.60;;;10.60;58.70;;;;;;5085360;28;20446;-87
2023/01/10 03:20:11;;;;;;;2.30;1.60;;;10.50;58.30;;;;;;5054793;28;20999;-87
2023/01/10 03:22:41;;;;;;;1.57;1.47;;;10.00;59.40;;;;;;5069404;28;20428;-86
2023/01/10 03:25:13;;;;;;;5.03;2.10;;;9.90;61.40;;;;;;5070138;28;20434;-87
2023/01/10 03:27:47;;;;;;;7.87;2.87;;;10.00;60.00;;;;;;5060036;28;20478;-87
2023/01/10 03:30:24;;;;;;;20.47;7.27;;;10.00;60.10;;;;;;5068851;28;20462;-84
2023/01/10 03:32:51;;;;;;;3.40;1.60;;;10.20;60.00;;;;;;5068388;28;20447;-87
2023/01/10 03:35:23;;;;;;;3.60;1.70;;;9.90;60.90;;;;;;5052865;28;20434;-87
2023/01/10 03:37:55;;;;;;;2.20;1.60;;;9.80;61.20;;;;;;5079839;28;20451;-87
2023/01/10 03:40:30;;;;;;;1.77;1.67;;;9.90;61.20;;;;;;5066778;28;20483;-87
2023/01/10 03:45:52;;;;;;;4.70;2.30;;;9.90;61.10;;;;;;5050520;28;20443;-86
2023/01/10 03:48:22;;;;;;;6.00;1.90;;;10.10;59.20;;;;;;5067963;28;20470;-87
2023/01/10 03:50:51;;;;;;;1.97;1.57;;;10.10;58.90;;;;;;5070606;28;20508;-88
2023/01/10 03:53:19;;;;;;;1.70;1.60;;;10.20;58.90;;;;;;5053740;28;21073;-87
2023/01/10 03:55:46;;;;;;;2.47;1.60;;;10.00;59.30;;;;;;5088430;28;20958;-88
2023/01/10 03:58:13;;;;;;;1.40;1.27;;;10.20;59.70;;;;;;5074607;28;20443;-87
2023/01/10 04:00:40;;;;;;;1.80;1.23;;;10.10;59.30;;;;;;5086319;28;20458;-86
2023/01/10 04:03:08;;;;;;;1.93;1.60;;;10.00;59.00;;;;;;5073109;28;20440;-85
2023/01/10 04:05:35;;;;;;;3.20;1.87;;;10.00;59.60;;;;;;5059518;28;21880;-86
2023/01/10 04:08:04;;;;;;;1.70;1.40;;;10.20;59.30;;;;;;5086703;28;20462;-87
2023/01/10 04:10:30;;;;;;;2.50;1.70;;;10.30;59.40;;;;;;5067024;28;20643;-87
2023/01/10 04:12:59;;;;;;;3.37;1.60;;;10.40;58.40;;;;;;5061849;28;20448;-86
2023/01/10 04:15:26;;;;;;;2.53;1.33;;;10.20;59.10;;;;;;5065994;28;20967;-87
2023/01/10 04:17:55;;;;;;;1.60;1.50;;;10.20;59.10;;;;;;5050899;28;20451;-86
2023/01/10 04:20:25;;;;;;;2.07;1.30;;;10.10;59.30;;;;;;5052833;28;20522;-89
2023/01/10 04:22:54;;;;;;;1.40;1.30;;;10.00;60.00;;;;;;5074811;28;20545;-86
2023/01/10 04:25:23;;;;;;;4.30;1.63;;;10.00;59.10;;;;;;5074760;27;20557;-87
2023/01/10 04:27:50;;;;;;;1.43;1.33;;;9.90;60.80;;;;;;5081134;28;20450;-87
2023/01/10 04:30:18;;;;;;;7.53;1.50;;;10.00;59.60;;;;;;5042486;27;20467;-86
2023/01/10 04:32:46;;;;;;;1.87;1.63;;;10.30;59.20;;;;;;5056906;28;20558;-87
2023/01/10 04:35:13;;;;;;;4.73;1.80;;;10.30;59.10;;;;;;5083252;28;20449;-86
2023/01/10 04:37:40;;;;;;;2.10;1.57;;;10.20;59.20;;;;;;5062906;28;20530;-86
2023/01/10 04:40:09;;;;;;;3.10;1.83;;;10.10;59.00;;;;;;5072700;28;20486;-84
2023/01/10 04:42:37;;;;;;;8.60;3.60;;;10.10;59.30;;;;;;5053912;28;22830;-85
2023/01/10 04:45:05;;;;;;;30.17;14.70;;;10.30;58.90;;;;;;5072944;28;20553;-87
2023/01/10 04:47:32;;;;;;;4.77;2.30;;;10.30;59.10;;;;;;5066906;28;20477;-86
2023/01/10 04:49:59;;;;;;;10.50;5.00;;;10.30;58.80;;;;;;5089670;28;20581;-88
2023/01/10 04:52:27;;;;;;;47.20;36.97;;;10.50;58.80;;;;;;5054757;28;20450;-87
2023/01/10 04:54:53;;;;;;;14.67;11.67;;;10.30;58.20;;;;;;5052223;28;20530;-84
2023/01/10 04:57:21;;;;;;;17.33;5.13;;;10.20;58.50;;;;;;5070600;28;20983;-86
2023/01/10 04:59:49;;;;;;;62.03;34.53;;;10.20;58.90;;;;;;5067460;28;20466;-86
2023/01/10 05:02:16;;;;;;;18.73;10.67;;;10.40;58.60;;;;;;5066951;28;20447;-85
2023/01/10 05:04:43;;;;;;;6.53;3.93;;;10.50;58.40;;;;;;5064379;28;20453;-83
2023/01/10 05:07:10;;;;;;;5.87;3.40;;;10.50;58.10;;;;;;5082443;28;20454;-84
2023/01/10 05:09:37;;;;;;;6.80;6.10;;;10.40;58.10;;;;;;5101190;28;20551;-85
2023/01/10 05:12:04;;;;;;;7.53;2.50;;;10.40;58.00;;;;;;5050830;28;20653;-84
2023/01/10 05:14:31;;;;;;;3.73;1.80;;;10.50;58.10;;;;;;5082493;27;20434;-86
2023/01/10 05:17:00;;;;;;;3.33;1.80;;;10.30;57.80;;;;;;5084073;28;20935;-86
2023/01/10 05:19:27;;;;;;;2.40;1.90;;;10.40;57.60;;;;;;5072394;28;20478;-85
2023/01/10 05:21:56;;;;;;;2.50;1.73;;;10.30;57.80;;;;;;5082892;28;20470;-86
2023/01/10 05:24:22;;;;;;;4.60;3.60;;;10.40;58.10;;;;;;5081770;27;20695;-83
2023/01/10 05:26:49;;;;;;;5.63;1.70;;;10.40;57.50;;;;;;5086575;28;20458;-84
2023/01/10 05:29:16;;;;;;;4.07;1.90;;;10.30;57.30;;;;;;5080330;27;21114;-85
2023/01/10 05:31:43;;;;;;;5.50;4.60;;;10.20;57.70;;;;;;5055636;28;20447;-85
2023/01/10 05:34:13;;;;;;;8.47;2.93;;;10.30;57.50;;;;;;5068055;28;21054;-85
2023/01/10 05:36:40;;;;;;;9.27;5.60;;;10.40;57.10;;;;;;5060827;27;20461;-84
2023/01/10 05:39:07;;;;;;;7.97;6.50;;;10.40;57.40;;;;;;5065299;28;20467;-86
2023/01/10 05:41:34;;;;;;;4.70;2.50;;;10.50;57.50;;;;;;5061379;27;21045;-85
2023/01/10 05:44:01;;;;;;;3.80;1.90;;;10.50;57.50;;;;;;5066766;28;20458;-86
2023/01/10 05:46:28;;;;;;;1.70;1.50;;;10.30;57.30;;;;;;5066374;27;20450;-85
2023/01/10 05:48:55;;;;;;;2.00;1.90;;;10.30;57.10;;;;;;5057814;28;20466;-86
2023/01/10 05:51:23;;;;;;;3.03;1.70;;;10.30;57.40;;;;;;5073436;28;20454;-86
2023/01/10 05:53:50;;;;;;;2.23;1.70;;;10.10;57.60;;;;;;5086246;28;20465;-85
2023/01/10 05:56:17;;;;;;;2.27;1.63;;;10.20;57.90;;;;;;5082101;28;21159;-85
2023/01/10 05:58:44;;;;;;;6.10;2.50;;;10.30;57.40;;;;;;5064553;28;20474;-84
2023/01/10 06:01:11;;;;;;;12.27;3.30;;;10.30;57.20;;;;;;5047848;28;20601;-85
2023/01/10 06:03:39;;;;;;;9.00;3.60;;;10.40;57.10;;;;;;5065155;28;20566;-85
2023/01/10 06:06:06;;;;;;;11.10;3.27;;;10.40;57.30;;;;;;5086712;28;20431;-85
2023/01/10 06:08:35;;;;;;;2.93;2.00;;;10.50;57.10;;;;;;5083717;28;20475;-84
2023/01/10 06:11:02;;;;;;;6.53;1.73;;;10.40;56.00;;;;;;5070638;28;20451;-85
2023/01/10 06:13:29;;;;;;;1.97;1.50;;;10.30;56.20;;;;;;5084392;28;20443;-85
2023/01/10 06:15:56;;;;;;;6.97;2.37;;;10.30;56.40;;;;;;5052348;28;20466;-85
2023/01/10 06:18:23;;;;;;;3.73;1.90;;;10.60;56.60;;;;;;5079554;28;20464;-84
2023/01/10 06:20:50;;;;;;;4.73;1.73;;;10.60;56.30;;;;;;5048313;28;20477;-85
2023/01/10 06:23:17;;;;;;;2.33;1.60;;;10.60;55.30;;;;;;5075563;28;20530;-83
2023/01/10 06:25:46;;;;;;;2.13;1.90;;;10.50;55.80;;;;;;5070107;28;20530;-87
2023/01/10 06:28:14;;;;;;;6.13;5.30;;;10.30;56.00;;;;;;5070751;28;21000;-84
2023/01/10 06:30:42;;;;;;;5.87;3.67;;;10.30;56.50;;;;;;5065224;28;20466;-84
2023/01/10 06:33:10;;;;;;;4.70;2.37;;;10.20;56.40;;;;;;5098922;28;20812;-84
2023/01/10 06:35:37;;;;;;;5.60;3.57;;;10.20;57.10;;;;;;5082891;28;20450;-85
2023/01/10 06:38:04;;;;;;;4.37;2.23;;;10.20;57.00;;;;;;5049508;28;20940;-84
2023/01/10 06:40:31;;;;;;;5.63;2.00;;;10.20;56.60;;;;;;5064588;28;20450;-85
2023/01/10 06:42:59;;;;;;;3.70;2.87;;;10.00;56.80;;;;;;5083627;28;20458;-84
2023/01/10 06:45:26;;;;;;;7.47;3.33;;;10.00;57.00;;;;;;5061473;28;20459;-83
2023/01/10 06:47:53;;;;;;;4.17;2.10;;;10.00;57.00;;;;;;5066229;28;20466;-84
2023/01/10 06:50:20;;;;;;;6.30;2.20;;;10.00;57.00;;;;;;5046909;28;20906;-84
2023/01/10 06:52:55;;;;;;;7.40;3.40;;;10.10;56.90;;;;;;5062832;28;21046;-85
2023/01/10 06:55:22;;;;;;;6.93;3.30;;;10.00;56.90;;;;;;5082414;28;20442;-85
2023/01/10 06:57:49;;;;;;;5.50;2.73;;;10.00;57.10;;;;;;5066799;28;20459;-85
2023/01/10 07:00:18;;;;;;;3.10;2.30;;;10.10;56.90;;;;;;5066270;27;20470;-85
2023/01/10 07:02:45;;;;;;;4.40;2.37;;;10.30;56.70;;;;;;5048316;28;20435;-86
2023/01/10 07:05:12;;;;;;;2.87;2.60;;;10.10;55.90;;;;;;5065887;28;20515;-84
2023/01/10 07:07:39;;;;;;;7.63;2.00;;;9.90;57.50;;;;;;5048505;28;20822;-84
2023/01/10 07:10:07;;;;;;;4.47;2.40;;;9.80;58.00;;;;;;5049447;28;20467;-86
2023/01/10 07:12:34;;;;;;;3.80;2.70;;;9.90;58.10;;;;;;5041022;28;20455;-86
2023/01/10 07:15:01;;;;;;;3.17;2.53;;;9.90;57.80;;;;;;5066111;28;20473;-85
2023/01/10 07:17:30;;;;;;;3.50;2.57;;;10.00;57.20;;;;;;5064461;28;20468;-86
2023/01/10 07:19:57;;;;;;;2.90;2.10;;;9.90;57.10;;;;;;5083284;28;20467;-84
2023/01/10 07:22:24;;;;;;;7.47;2.67;;;9.90;57.70;;;;;;5099294;28;20479;-85
2023/01/10 07:24:52;;;;;;;4.33;2.40;;;10.00;56.60;;;;;;5081748;28;20451;-85
2023/01/10 07:27:19;;;;;;;5.17;2.50;;;10.00;56.00;;;;;;5057867;28;20455;-85
2023/01/10 07:29:46;;;;;;;5.17;2.93;;;10.20;56.50;;;;;;5067118;28;20478;-86
2023/01/10 07:32:13;;;;;;;2.73;1.70;;;10.30;56.30;;;;;;5103389;28;20447;-85
2023/01/10 07:34:42;;;;;;;2.97;2.30;;;10.50;55.80;;;;;;5100285;28;21066;-85
2023/01/10 07:37:09;;;;;;;3.90;2.13;;;10.40;55.70;;;;;;5079023;28;20451;-86
2023/01/10 07:39:35;;;;;;;3.20;2.10;;;10.50;55.80;;;;;;5078930;28;20884;-85
2023/01/10 07:42:02;;;;;;;6.63;3.40;;;10.60;55.70;;;;;;5068797;28;20455;-85
2023/01/10 07:44:31;;;;;;;6.30;2.50;;;10.50;55.60;;;;;;5082071;28;20861;-86
2023/01/10 07:46:58;;;;;;;4.40;2.17;;;10.50;56.00;;;;;;5084069;28;20450;-86
2023/01/10 07:49:25;;;;;;;4.67;2.63;;;10.60;55.70;;;;;;5044807;28;20490;-84
2023/01/10 07:51:53;;;;;;;4.03;2.20;;;10.30;54.90;;;;;;5058131;28;20464;-85
2023/01/10 07:54:20;;;;;;;3.47;2.17;;;10.30;55.00;;;;;;5101033;28;21503;-84
2023/01/10 07:56:49;;;;;;;4.60;2.03;;;10.40;55.20;;;;;;5090090;28;20868;-86
2023/01/10 07:59:16;;;;;;;4.77;1.80;;;10.40;55.00;;;;;;5069995;28;20489;-84
2023/01/10 08:01:43;;;;;;;3.30;1.60;;;10.30;54.60;;;;;;5052861;28;20439;-86
2023/01/10 08:04:10;;;;;;;4.67;2.20;;;10.30;55.00;;;;;;5087635;28;20842;-85
2023/01/10 08:06:37;;;;;;;4.03;2.07;;;10.40;55.30;;;;;;5086383;28;20999;-84
2023/01/10 08:09:05;;;;;;;6.43;2.00;;;10.30;54.40;;;;;;5104623;27;20497;-84
2023/01/10 08:11:32;;;;;;;5.10;1.80;;;10.30;54.60;;;;;;5084940;28;20435;-85
2023/01/10 08:13:59;;;;;;;2.83;1.67;;;10.10;55.30;;;;;;5054796;28;20522;-83
2023/01/10 08:16:26;;;;;;;4.70;2.30;;;10.40;55.50;;;;;;5068612;27;20511;-85
2023/01/10 08:18:53;;;;;;;3.73;2.60;;;10.50;55.10;;;;;;5054150;28;20954;-84
2023/01/10 08:21:20;;;;;;;2.60;2.40;;;10.70;54.90;;;;;;5063583;28;20467;-85
2023/01/10 08:23:47;;;;;;;5.63;1.60;;;10.30;54.70;;;;;;5086500;28;20495;-83
2023/01/10 08:26:15;;;;;;;3.10;1.60;;;10.10;55.20;;;;;;5060484;28;20962;-84
2023/01/10 08:28:42;;;;;;;5.70;2.00;;;10.00;54.80;;;;;;5084278;28;20487;-85
2023/01/10 08:31:10;;;;;;;4.07;2.10;;;9.70;56.30;;;;;;5082079;28;20439;-85
2023/01/10 08:33:37;;;;;;;5.33;1.70;;;9.70;56.50;;;;;;5068570;28;20449;-83
2023/01/10 08:36:04;;;;;;;5.30;1.80;;;9.80;56.50;;;;;;5053863;28;20993;-85
2023/01/10 08:38:31;;;;;;;5.43;1.93;;;10.00;55.50;;;;;;5058254;28;20493;-85
2023/01/10 08:40:58;;;;;;;4.57;1.70;;;9.90;56.10;;;;;;5105403;28;20450;-84
2023/01/10 08:43:26;;;;;;;3.60;1.40;;;10.00;55.10;;;;;;5101620;28;20448;-84
2023/01/10 08:45:53;;;;;;;3.00;1.57;;;10.00;55.10;;;;;;5086435;28;20453;-84
2023/01/10 08:48:20;;;;;;;2.80;1.50;;;10.10;55.00;;;;;;5085394;28;20450;-85
2023/01/10 08:50:47;;;;;;;4.70;1.80;;;10.20;54.40;;;;;;5103970;28;20640;-85
2023/01/10 08:53:14;;;;;;;6.40;1.90;;;10.30;54.60;;;;;;5085097;28;20939;-84
2023/01/10 08:55:41;;;;;;;8.90;1.93;;;10.30;54.40;;;;;;5082237;28;20955;-85
2023/01/10 08:58:10;;;;;;;2.03;1.83;;;10.50;53.90;;;;;;5060930;28;20446;-84
2023/01/10 09:00:38;;;;;;;13.30;1.83;;;10.70;54.10;;;;;;5061769;27;20439;-85
2023/01/10 09:03:06;;;;;;;4.20;1.70;;;10.90;54.10;;;;;;5104098;28;20450;-86
2023/01/10 09:05:33;;;;;;;3.93;2.47;;;11.00;54.00;;;;;;5083253;28;20431;-86
2023/01/10 09:08:02;;;;;;;6.60;2.10;;;11.00;53.10;;;;;;5071615;28;21377;-85
2023/01/10 09:10:29;;;;;;;5.70;1.87;;;10.90;53.50;;;;;;5101746;27;20962;-86
2023/01/10 09:13:00;;;;;;;3.87;1.80;;;10.90;54.00;;;;;;5070063;28;20459;-85
2023/01/10 09:15:29;;;;;;;10.53;3.50;;;11.00;54.20;;;;;;5049603;28;20438;-87
2023/01/10 09:17:59;;;;;;;5.63;2.30;;;10.90;53.60;;;;;;5087004;28;20478;-85
2023/01/10 09:20:28;;;;;;;1.90;1.80;;;10.90;53.40;;;;;;5074854;28;20822;-85
2023/01/10 09:22:56;;;;;;;6.60;2.00;;;10.90;53.70;;;;;;5083614;28;20480;-84
2023/01/10 09:25:23;;;;;;;1.73;1.63;;;10.90;53.90;;;;;;5083952;28;20450;-83
2023/01/10 09:27:56;;;;;;;5.97;2.00;;;11.00;53.60;;;;;;5069080;28;20511;-86
2023/01/10 09:30:23;;;;;;;4.33;2.17;;;10.90;53.20;;;;;;5064602;28;20501;-86
2023/01/10 09:32:51;;;;;;;2.93;2.07;;;10.90;53.20;;;;;;5067162;28;20944;-85
2023/01/10 09:35:19;;;;;;;11.80;2.13;;;10.90;53.30;;;;;;5067555;28;20741;-86
2023/01/10 09:37:46;;;;;;;6.00;1.90;;;10.90;53.50;;;;;;5050221;28;20458;-86
2023/01/10 09:40:17;;;;;;;2.90;1.90;;;10.90;53.80;;;;;;5062892;28;20463;-86
2023/01/10 09:43:01;;;;;;;8.07;2.40;;;11.00;53.80;;;;;;5056221;28;20980;-84
2023/01/10 09:45:38;;;;;;;2.50;1.90;;;11.00;54.00;;;;;;5066204;28;20775;-85
2023/01/10 09:48:08;;;;;;;4.53;2.20;;;11.10;53.70;;;;;;5064878;28;20443;-83
2023/01/10 09:50:48;;;;;;;7.53;2.50;;;11.00;54.10;;;;;;5048062;28;20495;-87
2023/01/10 09:53:18;;;;;;;5.93;2.70;;;11.10;54.00;;;;;;5051737;28;20447;-85
2023/01/10 09:55:49;;;;;;;4.73;2.53;;;11.10;53.40;;;;;;5051068;28;20439;-86
2023/01/10 09:58:19;;;;;;;5.23;2.00;;;11.30;53.60;;;;;;5084506;28;20446;-85
2023/01/10 10:00:52;;;;;;;8.37;2.20;;;11.20;53.40;;;;;;5060651;28;20525;-87
2023/01/10 10:03:29;;;;;;;9.13;4.50;;;10.70;53.80;;;;;;5067324;28;20443;-86
2023/01/10 10:05:58;;;;;;;8.63;3.53;;;10.80;54.30;;;;;;5070780;28;20530;-86
2023/01/10 10:08:25;;;;;;;5.93;2.23;;;10.70;54.80;;;;;;5082523;28;21433;-84
2023/01/10 10:11:04;;;;;;;8.83;2.80;;;10.70;55.10;;;;;;5067025;28;20827;-86
2023/01/10 10:13:42;;;;;;;2.73;2.23;;;10.60;53.80;;;;;;5080332;27;20947;-85
2023/01/10 10:16:19;;;;;;;7.80;3.17;;;10.20;54.40;;;;;;5083450;28;20461;-86
2023/01/10 10:18:57;;;;;;;3.53;1.83;;;10.00;54.80;;;;;;5083577;28;20482;-85
2023/01/10 10:21:33;;;;;;;2.90;2.63;;;10.10;54.50;;;;;;5065565;28;20774;-84
2023/01/10 10:24:13;;;;;;;3.30;1.90;;;10.00;54.70;;;;;;5065573;28;20446;-84
2023/01/10 10:26:47;;;;;;;6.80;2.30;;;10.20;55.00;;;;;;5083853;28;20447;-85
2023/01/10 10:29:43;;;;;;;3.30;2.43;;;10.20;54.60;;;;;;5074498;28;20462;-84
2023/01/10 10:32:32;;;;;;;6.00;2.10;;;10.20;54.60;;;;;;5084649;28;20456;-85
2023/01/10 10:35:03;;;;;;;4.27;2.43;;;10.00;54.20;;;;;;5051080;28;20447;-86
2023/01/10 10:37:36;;;;;;;13.83;2.57;;;10.30;54.90;;;;;;5065727;28;20450;-86
2023/01/10 10:40:06;;;;;;;7.37;2.40;;;10.50;54.70;;;;;;5083135;28;20987;-87
2023/01/10 10:42:38;;;;;;;7.83;2.73;;;10.70;54.00;;;;;;5064423;28;20451;-85
2023/01/10 10:45:08;;;;;;;6.07;2.40;;;10.60;53.00;;;;;;5067944;28;20489;-86
2023/01/10 10:47:38;;;;;;;13.60;3.40;;;10.50;53.00;;;;;;5080491;28;20940;-86
2023/01/10 10:50:18;;;;;;;4.03;2.40;;;10.50;53.00;;;;;;5066527;28;20837;-86
2023/01/10 10:52:47;;;;;;;10.97;4.33;;;10.70;53.30;;;;;;5063713;28;20460;-84
2023/01/10 10:55:16;;;;;;;4.97;2.20;;;10.90;53.40;;;;;;5101134;28;20454;-86
2023/01/10 10:57:45;;;;;;;4.87;1.90;;;10.80;52.10;;;;;;5064739;28;20460;-86
2023/01/10 11:00:17;;;;;;;5.70;1.97;;;10.80;52.30;;;;;;5065805;28;20567;-84
2023/01/10 11:02:49;;;;;;;2.77;2.50;;;10.60;52.20;;;;;;5078802;28;20447;-85
2023/01/10 11:05:20;;;;;;;4.83;2.20;;;10.80;52.60;;;;;;5066891;28;20457;-86
2023/01/10 11:07:51;;;;;;;4.63;1.97;;;10.60;51.90;;;;;;5057015;28;20469;-85
2023/01/10 11:10:37;;;;;;;5.33;2.07;;;10.50;52.60;;;;;;5083247;28;20471;-85
2023/01/10 11:13:20;;;;;;;5.27;2.13;;;10.60;52.10;;;;;;5083259;28;20442;-84
2023/01/10 11:15:49;;;;;;;10.17;2.00;;;10.70;51.80;;;;;;5051364;28;20795;-86
2023/01/10 11:18:19;;;;;;;4.30;1.90;;;10.80;50.80;;;;;;5081747;28;20454;-84
2023/01/10 11:20:59;;;;;;;4.60;1.87;;;10.80;51.80;;;;;;5072019;28;20437;-85
2023/01/10 11:23:48;;;;;;;4.33;2.30;;;10.50;51.10;;;;;;5063470;28;20455;-84
2023/01/10 11:26:25;;;;;;;5.30;2.10;;;10.30;51.70;;;;;;5067443;28;20461;-86
2023/01/10 11:29:01;;;;;;;7.10;3.07;;;10.30;51.90;;;;;;5063487;28;20481;-85
2023/01/10 11:31:30;;;;;;;8.00;2.90;;;10.50;52.10;;;;;;5099338;28;20474;-85
2023/01/10 11:33:57;;;;;;;9.43;3.30;;;10.80;51.90;;;;;;5066234;28;20435;-85
2023/01/10 11:36:25;;;;;;;10.70;2.97;;;11.00;51.60;;;;;;5065683;28;20451;-84
2023/01/10 11:39:01;;;;;;;5.87;2.70;;;10.90;50.50;;;;;;5097636;28;20456;-85
2023/01/10 11:41:33;;;;;;;9.17;2.27;;;11.00;51.50;;;;;;5061875;28;20438;-83
2023/01/10 11:44:15;;;;;;;7.23;2.73;;;11.00;51.00;;;;;;5084995;28;21128;-85
2023/01/10 11:46:44;;;;;;;5.23;1.83;;;10.80;50.00;;;;;;5067843;28;20454;-86
2023/01/10 11:49:18;;;;;;;8.23;2.00;;;11.00;51.00;;;;;;5044090;28;20467;-86
2023/01/10 11:51:48;;;;;;;6.80;2.37;;;11.10;50.20;;;;;;5061016;28;20473;-86
2023/01/10 11:54:21;;;;;;;7.17;1.93;;;11.30;50.60;;;;;;5083300;28;20446;-86
2023/01/10 11:56:56;;;;;;;6.43;2.40;;;11.00;50.20;;;;;;5049868;28;20440;-86
2023/01/10 11:59:24;;;;;;;3.83;1.97;;;10.90;50.90;;;;;;5059332;28;20547;-86
2023/01/10 12:01:56;;;;;;;5.70;2.10;;;11.00;51.20;;;;;;5082255;28;20650;-85
2023/01/10 12:04:26;;;;;;;9.83;4.70;;;11.20;50.80;;;;;;5061317;28;20469;-83
2023/01/10 12:06:57;;;;;;;6.53;2.30;;;11.00;51.20;;;;;;5043973;28;20443;-86
2023/01/10 12:09:41;;;;;;;7.47;3.67;;;10.90;51.10;;;;;;5059831;28;20910;-86
2023/01/10 12:12:19;;;;;;;8.53;3.20;;;10.90;51.20;;;;;;5050067;28;20857;-86
2023/01/10 12:14:47;;;;;;;8.40;4.67;;;10.90;51.30;;;;;;5064011;28;20435;-85
2023/01/10 12:17:23;;;;;;;24.90;8.80;;;11.00;51.40;;;;;;5050495;28;20836;-86
2023/01/10 12:19:52;;;;;;;10.77;5.67;;;11.10;51.60;;;;;;5083741;28;20534;-85
2023/01/10 12:22:22;;;;;;;12.20;4.23;;;10.90;51.50;;;;;;5068464;28;20802;-87
2023/01/10 12:24:54;;;;;;;3.53;2.33;;;11.00;51.50;;;;;;5082143;28;20477;-86
2023/01/10 12:27:23;;;;;;;4.17;2.43;;;11.10;51.50;;;;;;5096868;28;20443;-87
2023/01/10 12:29:58;;;;;;;7.53;2.20;;;11.20;51.90;;;;;;5044551;28;20493;-87
2023/01/10 12:32:30;;;;;;;5.20;2.23;;;11.20;51.10;;;;;;5084191;28;20450;-87
2023/01/10 12:35:01;;;;;;;7.10;2.63;;;11.20;52.00;;;;;;5066579;28;20454;-86
2023/01/10 12:37:35;;;;;;;9.37;2.50;;;11.10;51.90;;;;;;5100752;28;20469;-85
2023/01/10 12:40:13;;;;;;;2.47;2.00;;;10.90;52.20;;;;;;5085302;28;20462;-84
2023/01/10 12:45:40;;;;;;;5.27;2.27;;;11.00;53.20;;;;;;5062886;27;20527;-85
2023/01/10 12:48:17;;;;;;;5.17;2.20;;;11.20;52.70;;;;;;5070989;28;20454;-84
2023/01/10 12:50:47;;;;;;;18.10;10.03;;;11.20;52.30;;;;;;5103747;27;20462;-86
2023/01/10 12:53:23;;;;;;;6.70;3.10;;;10.90;53.00;;;;;;5067614;28;20453;-85
2023/01/10 12:55:55;;;;;;;6.67;2.57;;;10.90;54.50;;;;;;5067155;28;20986;-86
2023/01/10 12:58:34;;;;;;;9.43;4.67;;;10.80;54.60;;;;;;5086183;28;21321;-83
2023/01/10 13:01:03;;;;;;;6.53;2.40;;;11.10;54.90;;;;;;5069869;28;20437;-86
2023/01/10 13:03:33;;;;;;;10.90;2.73;;;10.80;54.60;;;;;;5073703;28;20457;-85
2023/01/10 13:06:01;;;;;;;7.30;2.73;;;10.70;55.20;;;;;;5087762;28;20678;-87
2023/01/10 13:08:31;;;;;;;5.20;2.20;;;10.80;55.80;;;;;;5062150;28;20459;-86
2023/01/10 13:11:01;;;;;;;8.13;2.23;;;10.80;55.40;;;;;;5054592;28;20455;-85
2023/01/10 13:13:34;;;;;;;5.23;2.30;;;10.90;55.30;;;;;;5075706;28;20482;-86